Aérodrome :
LOGIN :

S'inscrire | Disclaimer

   EN    FR    IT 

 










Légende :    VFR   VFR Marginal   IFR   IFR Intensif   IFR Très Intensif
Visi : 
Plafond : 
>= 8 km
>= 3000ft
5 à 8 km
1000 à 3000 ft
1500m à 5 km
500 à 1000 ft
800 à 1500m
200 à 500 ft
< 800m
< 200 ft
Symboles :   Orages  Brouillard  Fortes neiges  Fortes précipitations  Vent > 20 kt
SIGMETs :   Divers  Orages  Givrage  Turbulence  Onde Orograph.  Cendres Volcan.







- Altitude de l'aérodrome : 1568 ft


ETSB - Büchel AB

DERNIER METAR :
  • 181720Z 29008KT 9999 FEW024 03/M02 Q1002 BLU+BLU+ TEMPO GRN

METARs EXPIRÉS :
  • 181620Z 28011KT 9999 FEW024 SCT050 04/M02 Q1001 BLU+BLU+ TEMPO GRN
  • 181520Z 29015KT 9999 FEW024 SCT050 04/M02 Q1000 BLU+BLU+ TEMPO GRN

TAF TAF ETSB
Valide du 18 à 18h jusqu'au 19 à 03h UTC


181740Z 1818/1903 28015KT 9999 NSW FEW020 BKN040
TEMPO 1818/1903 26015G25KT 4000 SHRASN SCT005 BKN010TCU BY ETGL
Pas de NOTAMs connus pour ce terrain.



MET'MAP, la Météo Aéronautique d'un coup d'oeil ! - Copyright ORBIFLY Décembre 2007 - Disclaimer

ORBIFLY MET'MAP TEAM :

Programmation & Développement : Alexandra Zaïnal
Conception & Développement : Baudouin d'Aumeries
Co-Programmation & Développement : Marc-Olivier Méhu
Soutien technique & logistique : Manuel Goepfert

Contact : metmap@orbifly.com




SOURCES & CREDITS :

   NOAA